sensor_id;sensor_type;location;lat;lon;timestamp;P1;durP1;ratioP1;P2;durP2;ratioP2
11187;SDS011;5650;52.700;7.306;2023-02-03T00:01:18;18.35;;;7.13;;
11187;SDS011;5650;52.700;7.306;2023-02-03T00:03:47;17.83;;;7.35;;
11187;SDS011;5650;52.700;7.306;2023-02-03T00:06:14;13.23;;;7.28;;
11187;SDS011;5650;52.700;7.306;2023-02-03T00:08:41;20.02;;;6.97;;
11187;SDS011;5650;52.700;7.306;2023-02-03T00:11:08;17.40;;;7.25;;
11187;SDS011;5650;52.700;7.306;2023-02-03T00:13:36;17.48;;;7.10;;
11187;SDS011;5650;52.700;7.306;2023-02-03T00:16:03;15.88;;;7.13;;
11187;SDS011;5650;52.700;7.306;2023-02-03T00:18:36;12.32;;;6.78;;
11187;SDS011;5650;52.700;7.306;2023-02-03T00:21:09;14.65;;;6.40;;
11187;SDS011;5650;52.700;7.306;2023-02-03T00:23:38;12.93;;;6.63;;
11187;SDS011;5650;52.700;7.306;2023-02-03T00:26:14;16.17;;;6.68;;
11187;SDS011;5650;52.700;7.306;2023-02-03T00:28:42;13.40;;;5.90;;
11187;SDS011;5650;52.700;7.306;2023-02-03T00:31:16;15.85;;;5.93;;
11187;SDS011;5650;52.700;7.306;2023-02-03T00:33:46;15.25;;;5.60;;
11187;SDS011;5650;52.700;7.306;2023-02-03T00:36:25;15.23;;;5.75;;
11187;SDS011;5650;52.700;7.306;2023-02-03T00:38:53;14.95;;;5.82;;
11187;SDS011;5650;52.700;7.306;2023-02-03T00:41:20;12.02;;;5.25;;
11187;SDS011;5650;52.700;7.306;2023-02-03T00:43:54;15.98;;;4.88;;
11187;SDS011;5650;52.700;7.306;2023-02-03T00:46:21;16.00;;;5.22;;
11187;SDS011;5650;52.700;7.306;2023-02-03T00:48:53;10.02;;;4.20;;
11187;SDS011;5650;52.700;7.306;2023-02-03T00:51:23;13.55;;;4.35;;
11187;SDS011;5650;52.700;7.306;2023-02-03T00:53:53;16.58;;;4.43;;
11187;SDS011;5650;52.700;7.306;2023-02-03T00:56:23;16.08;;;4.45;;
11187;SDS011;5650;52.700;7.306;2023-02-03T00:58:50;12.60;;;4.00;;
11187;SDS011;5650;52.700;7.306;2023-02-03T01:01:21;14.68;;;4.50;;
11187;SDS011;5650;52.700;7.306;2023-02-03T01:03:48;11.82;;;3.97;;
11187;SDS011;5650;52.700;7.306;2023-02-03T01:06:17;12.50;;;3.78;;
11187;SDS011;5650;52.700;7.306;2023-02-03T01:08:45;10.60;;;3.80;;
11187;SDS011;5650;52.700;7.306;2023-02-03T01:11:17;13.38;;;3.80;;
11187;SDS011;5650;52.700;7.306;2023-02-03T01:13:55;11.18;;;3.92;;
11187;SDS011;5650;52.700;7.306;2023-02-03T01:16:26;7.68;;;3.80;;
11187;SDS011;5650;52.700;7.306;2023-02-03T01:18:56;13.20;;;3.70;;
11187;SDS011;5650;52.700;7.306;2023-02-03T01:21:31;15.95;;;3.63;;
11187;SDS011;5650;52.700;7.306;2023-02-03T01:24:04;11.02;;;3.90;;
11187;SDS011;5650;52.700;7.306;2023-02-03T01:26:40;19.25;;;3.80;;
11187;SDS011;5650;52.700;7.306;2023-02-03T01:29:08;10.10;;;3.35;;
11187;SDS011;5650;52.700;7.306;2023-02-03T01:31:37;12.23;;;3.47;;
11187;SDS011;5650;52.700;7.306;2023-02-03T01:34:06;13.63;;;4.10;;
11187;SDS011;5650;52.700;7.306;2023-02-03T01:36:38;15.07;;;4.22;;
11187;SDS011;5650;52.700;7.306;2023-02-03T01:39:08;10.38;;;3.45;;
11187;SDS011;5650;52.700;7.306;2023-02-03T01:41:43;8.85;;;3.45;;
11187;SDS011;5650;52.700;7.306;2023-02-03T01:47:11;9.48;;;4.45;;
11187;SDS011;5650;52.700;7.306;2023-02-03T01:49:48;11.73;;;3.70;;
11187;SDS011;5650;52.700;7.306;2023-02-03T01:52:39;12.32;;;3.95;;
11187;SDS011;5650;52.700;7.306;2023-02-03T01:55:08;9.02;;;3.72;;
11187;SDS011;5650;52.700;7.306;2023-02-03T01:57:42;13.35;;;3.47;;
11187;SDS011;5650;52.700;7.306;2023-02-03T02:00:11;12.75;;;3.80;;
11187;SDS011;5650;52.700;7.306;2023-02-03T02:02:43;11.80;;;4.20;;
11187;SDS011;5650;52.700;7.306;2023-02-03T02:05:17;14.98;;;4.13;;
11187;SDS011;5650;52.700;7.306;2023-02-03T02:07:55;11.13;;;3.97;;
11187;SDS011;5650;52.700;7.306;2023-02-03T02:10:28;12.35;;;4.20;;
11187;SDS011;5650;52.700;7.306;2023-02-03T02:12:56;16.20;;;4.32;;
11187;SDS011;5650;52.700;7.306;2023-02-03T02:15:27;15.65;;;4.05;;
11187;SDS011;5650;52.700;7.306;2023-02-03T02:18:19;10.57;;;4.57;;
11187;SDS011;5650;52.700;7.306;2023-02-03T02:33:55;13.65;;;3.95;;
11187;SDS011;5650;52.700;7.306;2023-02-03T02:36:34;21.05;;;4.65;;
11187;SDS011;5650;52.700;7.306;2023-02-03T02:39:12;13.65;;;3.92;;
11187;SDS011;5650;52.700;7.306;2023-02-03T02:41:50;16.55;;;4.07;;
11187;SDS011;5650;52.700;7.306;2023-02-03T02:44:25;12.02;;;3.47;;
11187;SDS011;5650;52.700;7.306;2023-02-03T02:47:03;16.05;;;3.92;;
11187;SDS011;5650;52.700;7.306;2023-02-03T02:49:43;14.77;;;3.90;;
11187;SDS011;5650;52.700;7.306;2023-02-03T02:52:16;9.35;;;3.10;;
11187;SDS011;5650;52.700;7.306;2023-02-03T02:54:45;14.18;;;3.90;;
11187;SDS011;5650;52.700;7.306;2023-02-03T02:57:19;13.73;;;3.47;;
11187;SDS011;5650;52.700;7.306;2023-02-03T02:59:56;16.88;;;3.67;;
11187;SDS011;5650;52.700;7.306;2023-02-03T03:02:30;11.35;;;3.25;;
11187;SDS011;5650;52.700;7.306;2023-02-03T03:05:05;16.85;;;3.78;;
11187;SDS011;5650;52.700;7.306;2023-02-03T03:07:46;9.60;;;3.47;;
11187;SDS011;5650;52.700;7.306;2023-02-03T03:10:17;11.43;;;3.05;;
11187;SDS011;5650;52.700;7.306;2023-02-03T03:12:55;16.30;;;3.95;;
11187;SDS011;5650;52.700;7.306;2023-02-03T03:15:29;16.42;;;3.35;;
11187;SDS011;5650;52.700;7.306;2023-02-03T03:17:58;11.07;;;3.60;;
11187;SDS011;5650;52.700;7.306;2023-02-03T03:20:33;15.43;;;3.22;;
11187;SDS011;5650;52.700;7.306;2023-02-03T03:23:11;12.82;;;2.97;;
11187;SDS011;5650;52.700;7.306;2023-02-03T03:25:45;10.55;;;2.80;;
11187;SDS011;5650;52.700;7.306;2023-02-03T03:28:19;15.98;;;3.10;;
11187;SDS011;5650;52.700;7.306;2023-02-03T03:30:51;10.20;;;2.85;;
11187;SDS011;5650;52.700;7.306;2023-02-03T03:33:27;15.98;;;4.03;;
11187;SDS011;5650;52.700;7.306;2023-02-03T03:36:00;12.23;;;2.90;;
11187;SDS011;5650;52.700;7.306;2023-02-03T03:38:36;10.55;;;2.75;;
11187;SDS011;5650;52.700;7.306;2023-02-03T03:41:11;14.02;;;2.83;;
11187;SDS011;5650;52.700;7.306;2023-02-03T03:43:45;12.77;;;3.40;;
11187;SDS011;5650;52.700;7.306;2023-02-03T03:46:18;9.90;;;2.83;;
11187;SDS011;5650;52.700;7.306;2023-02-03T03:48:54;11.32;;;2.58;;
11187;SDS011;5650;52.700;7.306;2023-02-03T03:51:25;9.20;;;2.55;;
11187;SDS011;5650;52.700;7.306;2023-02-03T03:53:56;8.88;;;2.75;;
11187;SDS011;5650;52.700;7.306;2023-02-03T03:56:35;10.25;;;2.85;;
11187;SDS011;5650;52.700;7.306;2023-02-03T03:59:08;10.25;;;2.60;;
11187;SDS011;5650;52.700;7.306;2023-02-03T04:01:49;11.25;;;2.55;;
11187;SDS011;5650;52.700;7.306;2023-02-03T04:04:20;11.10;;;3.20;;
11187;SDS011;5650;52.700;7.306;2023-02-03T04:06:53;14.43;;;3.25;;
11187;SDS011;5650;52.700;7.306;2023-02-03T04:09:26;8.77;;;2.72;;
11187;SDS011;5650;52.700;7.306;2023-02-03T04:11:56;12.45;;;2.53;;
11187;SDS011;5650;52.700;7.306;2023-02-03T04:14:34;8.48;;;2.50;;
11187;SDS011;5650;52.700;7.306;2023-02-03T04:17:03;16.70;;;3.53;;
11187;SDS011;5650;52.700;7.306;2023-02-03T04:19:31;7.65;;;2.75;;
11187;SDS011;5650;52.700;7.306;2023-02-03T04:22:08;7.18;;;2.13;;
11187;SDS011;5650;52.700;7.306;2023-02-03T04:24:35;12.23;;;2.58;;
11187;SDS011;5650;52.700;7.306;2023-02-03T04:27:08;12.38;;;2.38;;
11187;SDS011;5650;52.700;7.306;2023-02-03T04:29:35;12.55;;;2.53;;
11187;SDS011;5650;52.700;7.306;2023-02-03T04:32:05;8.70;;;2.38;;
11187;SDS011;5650;52.700;7.306;2023-02-03T04:34:41;9.88;;;2.33;;
11187;SDS011;5650;52.700;7.306;2023-02-03T04:37:10;9.35;;;2.53;;
11187;SDS011;5650;52.700;7.306;2023-02-03T04:39:37;9.07;;;2.30;;
11187;SDS011;5650;52.700;7.306;2023-02-03T04:42:04;15.20;;;2.40;;
11187;SDS011;5650;52.700;7.306;2023-02-03T04:44:31;15.02;;;2.53;;
11187;SDS011;5650;52.700;7.306;2023-02-03T04:47:04;12.25;;;3.17;;
11187;SDS011;5650;52.700;7.306;2023-02-03T04:49:40;11.35;;;2.85;;
11187;SDS011;5650;52.700;7.306;2023-02-03T04:52:12;12.13;;;2.83;;
11187;SDS011;5650;52.700;7.306;2023-02-03T04:54:40;9.10;;;2.47;;
11187;SDS011;5650;52.700;7.306;2023-02-03T04:57:07;10.82;;;2.95;;
11187;SDS011;5650;52.700;7.306;2023-02-03T04:59:34;8.20;;;2.42;;
11187;SDS011;5650;52.700;7.306;2023-02-03T05:02:04;9.18;;;2.53;;
11187;SDS011;5650;52.700;7.306;2023-02-03T05:04:32;9.18;;;2.70;;
11187;SDS011;5650;52.700;7.306;2023-02-03T05:07:00;11.35;;;2.70;;
11187;SDS011;5650;52.700;7.306;2023-02-03T05:09:31;10.80;;;2.40;;
11187;SDS011;5650;52.700;7.306;2023-02-03T05:11:58;16.95;;;2.92;;
11187;SDS011;5650;52.700;7.306;2023-02-03T05:14:25;11.13;;;2.50;;
11187;SDS011;5650;52.700;7.306;2023-02-03T05:16:53;6.88;;;2.30;;
11187;SDS011;5650;52.700;7.306;2023-02-03T05:19:20;11.75;;;2.38;;
11187;SDS011;5650;52.700;7.306;2023-02-03T05:21:50;12.30;;;2.80;;
11187;SDS011;5650;52.700;7.306;2023-02-03T05:24:17;11.80;;;3.08;;
11187;SDS011;5650;52.700;7.306;2023-02-03T05:26:46;12.38;;;2.50;;
11187;SDS011;5650;52.700;7.306;2023-02-03T05:29:14;13.50;;;2.85;;
11187;SDS011;5650;52.700;7.306;2023-02-03T05:31:41;7.43;;;2.55;;
11187;SDS011;5650;52.700;7.306;2023-02-03T05:34:08;12.95;;;2.38;;
11187;SDS011;5650;52.700;7.306;2023-02-03T05:36:35;12.48;;;3.10;;
11187;SDS011;5650;52.700;7.306;2023-02-03T05:39:03;14.40;;;2.75;;
11187;SDS011;5650;52.700;7.306;2023-02-03T05:41:30;14.00;;;3.10;;
11187;SDS011;5650;52.700;7.306;2023-02-03T05:44:16;10.50;;;2.47;;
11187;SDS011;5650;52.700;7.306;2023-02-03T05:46:43;15.25;;;2.97;;
11187;SDS011;5650;52.700;7.306;2023-02-03T05:49:10;14.15;;;3.00;;
11187;SDS011;5650;52.700;7.306;2023-02-03T05:51:40;14.25;;;2.88;;
11187;SDS011;5650;52.700;7.306;2023-02-03T05:54:08;17.15;;;2.95;;
11187;SDS011;5650;52.700;7.306;2023-02-03T05:56:38;10.55;;;2.80;;
11187;SDS011;5650;52.700;7.306;2023-02-03T05:59:05;18.73;;;3.42;;
11187;SDS011;5650;52.700;7.306;2023-02-03T06:01:34;10.77;;;2.95;;
11187;SDS011;5650;52.700;7.306;2023-02-03T06:04:02;12.90;;;2.67;;
11187;SDS011;5650;52.700;7.306;2023-02-03T06:06:29;11.23;;;2.80;;
11187;SDS011;5650;52.700;7.306;2023-02-03T06:08:58;11.85;;;3.00;;
11187;SDS011;5650;52.700;7.306;2023-02-03T06:11:26;11.85;;;2.70;;
11187;SDS011;5650;52.700;7.306;2023-02-03T06:13:54;11.98;;;3.05;;
11187;SDS011;5650;52.700;7.306;2023-02-03T06:16:22;12.30;;;3.55;;
11187;SDS011;5650;52.700;7.306;2023-02-03T06:18:51;11.20;;;3.40;;
11187;SDS011;5650;52.700;7.306;2023-02-03T06:21:22;10.43;;;3.53;;
11187;SDS011;5650;52.700;7.306;2023-02-03T06:23:50;13.82;;;3.10;;
11187;SDS011;5650;52.700;7.306;2023-02-03T06:26:24;10.20;;;3.00;;
11187;SDS011;5650;52.700;7.306;2023-02-03T06:28:51;9.35;;;3.15;;
11187;SDS011;5650;52.700;7.306;2023-02-03T06:31:18;15.32;;;3.08;;
11187;SDS011;5650;52.700;7.306;2023-02-03T06:33:45;13.52;;;3.58;;
11187;SDS011;5650;52.700;7.306;2023-02-03T06:36:14;15.07;;;3.20;;
11187;SDS011;5650;52.700;7.306;2023-02-03T06:38:41;15.80;;;3.75;;
11187;SDS011;5650;52.700;7.306;2023-02-03T06:41:14;13.25;;;3.20;;
11187;SDS011;5650;52.700;7.306;2023-02-03T06:43:52;9.15;;;3.60;;
11187;SDS011;5650;52.700;7.306;2023-02-03T06:46:19;11.88;;;2.95;;
11187;SDS011;5650;52.700;7.306;2023-02-03T06:48:49;13.45;;;3.10;;
11187;SDS011;5650;52.700;7.306;2023-02-03T06:51:25;13.90;;;3.17;;
11187;SDS011;5650;52.700;7.306;2023-02-03T06:53:52;15.13;;;3.90;;
11187;SDS011;5650;52.700;7.306;2023-02-03T06:56:20;18.02;;;3.70;;
11187;SDS011;5650;52.700;7.306;2023-02-03T06:58:47;16.10;;;2.97;;
11187;SDS011;5650;52.700;7.306;2023-02-03T07:01:17;17.65;;;3.90;;
11187;SDS011;5650;52.700;7.306;2023-02-03T07:03:44;13.23;;;2.65;;
11187;SDS011;5650;52.700;7.306;2023-02-03T07:06:14;13.20;;;3.10;;
11187;SDS011;5650;52.700;7.306;2023-02-03T07:08:46;14.93;;;3.67;;
11187;SDS011;5650;52.700;7.306;2023-02-03T07:11:13;19.08;;;3.38;;
11187;SDS011;5650;52.700;7.306;2023-02-03T07:13:40;10.18;;;3.35;;
11187;SDS011;5650;52.700;7.306;2023-02-03T07:16:07;16.90;;;3.55;;
11187;SDS011;5650;52.700;7.306;2023-02-03T07:18:34;13.70;;;3.10;;
11187;SDS011;5650;52.700;7.306;2023-02-03T07:21:03;14.18;;;3.83;;
11187;SDS011;5650;52.700;7.306;2023-02-03T07:23:32;11.52;;;3.33;;
11187;SDS011;5650;52.700;7.306;2023-02-03T07:25:59;14.70;;;3.45;;
11187;SDS011;5650;52.700;7.306;2023-02-03T07:28:31;16.77;;;3.40;;
11187;SDS011;5650;52.700;7.306;2023-02-03T07:31:00;16.83;;;3.28;;
11187;SDS011;5650;52.700;7.306;2023-02-03T07:33:34;15.50;;;3.90;;
11187;SDS011;5650;52.700;7.306;2023-02-03T07:36:08;13.27;;;3.38;;
11187;SDS011;5650;52.700;7.306;2023-02-03T07:38:40;12.35;;;3.70;;
11187;SDS011;5650;52.700;7.306;2023-02-03T07:41:13;14.05;;;3.47;;
11187;SDS011;5650;52.700;7.306;2023-02-03T07:43:49;14.82;;;3.40;;
11187;SDS011;5650;52.700;7.306;2023-02-03T07:46:16;14.43;;;3.22;;
11187;SDS011;5650;52.700;7.306;2023-02-03T07:48:44;16.58;;;3.20;;
11187;SDS011;5650;52.700;7.306;2023-02-03T07:51:14;12.65;;;3.47;;
11187;SDS011;5650;52.700;7.306;2023-02-03T07:53:43;15.57;;;3.40;;
11187;SDS011;5650;52.700;7.306;2023-02-03T07:56:11;11.52;;;2.97;;
11187;SDS011;5650;52.700;7.306;2023-02-03T07:58:41;15.88;;;4.05;;
11187;SDS011;5650;52.700;7.306;2023-02-03T08:01:09;13.18;;;3.60;;
11187;SDS011;5650;52.700;7.306;2023-02-03T08:03:37;15.90;;;3.60;;
11187;SDS011;5650;52.700;7.306;2023-02-03T08:06:04;15.93;;;3.40;;
11187;SDS011;5650;52.700;7.306;2023-02-03T08:08:32;12.68;;;3.20;;
11187;SDS011;5650;52.700;7.306;2023-02-03T08:11:15;15.38;;;3.72;;
11187;SDS011;5650;52.700;7.306;2023-02-03T08:13:42;21.00;;;3.88;;
11187;SDS011;5650;52.700;7.306;2023-02-03T08:16:19;20.20;;;4.00;;
11187;SDS011;5650;52.700;7.306;2023-02-03T08:18:46;14.00;;;3.70;;
11187;SDS011;5650;52.700;7.306;2023-02-03T08:21:13;14.85;;;3.47;;
11187;SDS011;5650;52.700;7.306;2023-02-03T08:23:40;21.30;;;3.90;;
11187;SDS011;5650;52.700;7.306;2023-02-03T08:26:18;18.73;;;4.32;;
11187;SDS011;5650;52.700;7.306;2023-02-03T08:28:47;11.63;;;3.30;;
11187;SDS011;5650;52.700;7.306;2023-02-03T08:31:21;17.02;;;3.92;;
11187;SDS011;5650;52.700;7.306;2023-02-03T08:33:49;14.93;;;3.85;;
11187;SDS011;5650;52.700;7.306;2023-02-03T08:36:19;15.85;;;3.88;;
11187;SDS011;5650;52.700;7.306;2023-02-03T08:38:46;17.67;;;4.38;;
11187;SDS011;5650;52.700;7.306;2023-02-03T08:41:19;17.27;;;3.90;;
11187;SDS011;5650;52.700;7.306;2023-02-03T08:43:46;10.98;;;3.45;;
11187;SDS011;5650;52.700;7.306;2023-02-03T08:46:16;19.65;;;4.32;;
11187;SDS011;5650;52.700;7.306;2023-02-03T08:48:43;20.42;;;4.53;;
11187;SDS011;5650;52.700;7.306;2023-02-03T08:51:10;13.13;;;3.88;;
11187;SDS011;5650;52.700;7.306;2023-02-03T08:53:44;17.30;;;4.25;;
11187;SDS011;5650;52.700;7.306;2023-02-03T08:56:11;18.60;;;3.83;;
11187;SDS011;5650;52.700;7.306;2023-02-03T08:58:43;15.45;;;4.30;;
11187;SDS011;5650;52.700;7.306;2023-02-03T09:01:28;22.27;;;4.53;;
11187;SDS011;5650;52.700;7.306;2023-02-03T09:03:58;20.77;;;4.43;;
11187;SDS011;5650;52.700;7.306;2023-02-03T09:06:32;23.00;;;4.53;;
11187;SDS011;5650;52.700;7.306;2023-02-03T09:09:02;16.52;;;4.15;;
11187;SDS011;5650;52.700;7.306;2023-02-03T09:11:30;17.52;;;4.53;;
11187;SDS011;5650;52.700;7.306;2023-02-03T09:14:02;19.67;;;4.35;;
11187;SDS011;5650;52.700;7.306;2023-02-03T09:16:29;16.42;;;4.40;;
11187;SDS011;5650;52.700;7.306;2023-02-03T09:19:02;20.05;;;5.00;;
11187;SDS011;5650;52.700;7.306;2023-02-03T09:21:29;19.92;;;4.70;;
11187;SDS011;5650;52.700;7.306;2023-02-03T09:24:03;17.83;;;4.70;;
11187;SDS011;5650;52.700;7.306;2023-02-03T09:26:39;19.98;;;4.90;;
11187;SDS011;5650;52.700;7.306;2023-02-03T09:29:07;21.73;;;4.50;;
11187;SDS011;5650;52.700;7.306;2023-02-03T09:31:37;20.98;;;5.25;;
11187;SDS011;5650;52.700;7.306;2023-02-03T09:34:07;19.63;;;4.65;;
11187;SDS011;5650;52.700;7.306;2023-02-03T09:36:35;17.90;;;4.32;;
11187;SDS011;5650;52.700;7.306;2023-02-03T09:39:02;18.35;;;4.55;;
11187;SDS011;5650;52.700;7.306;2023-02-03T09:41:39;17.42;;;4.22;;
11187;SDS011;5650;52.700;7.306;2023-02-03T09:44:18;18.88;;;4.20;;
11187;SDS011;5650;52.700;7.306;2023-02-03T09:46:55;17.98;;;4.90;;
11187;SDS011;5650;52.700;7.306;2023-02-03T09:49:27;19.02;;;3.88;;
11187;SDS011;5650;52.700;7.306;2023-02-03T09:52:08;18.92;;;4.10;;
11187;SDS011;5650;52.700;7.306;2023-02-03T09:54:40;21.02;;;4.25;;
11187;SDS011;5650;52.700;7.306;2023-02-03T09:57:12;21.75;;;4.65;;
11187;SDS011;5650;52.700;7.306;2023-02-03T09:59:47;22.02;;;4.25;;
11187;SDS011;5650;52.700;7.306;2023-02-03T10:02:21;25.17;;;4.95;;
11187;SDS011;5650;52.700;7.306;2023-02-03T10:04:57;26.00;;;5.28;;
11187;SDS011;5650;52.700;7.306;2023-02-03T10:07:34;21.73;;;4.55;;
11187;SDS011;5650;52.700;7.306;2023-02-03T10:10:20;24.75;;;4.43;;
11187;SDS011;5650;52.700;7.306;2023-02-03T10:12:59;20.55;;;4.55;;
11187;SDS011;5650;52.700;7.306;2023-02-03T10:18:27;20.85;;;4.82;;
11187;SDS011;5650;52.700;7.306;2023-02-03T10:20:58;29.77;;;4.82;;
11187;SDS011;5650;52.700;7.306;2023-02-03T10:23:30;33.55;;;6.38;;
11187;SDS011;5650;52.700;7.306;2023-02-03T10:26:01;22.83;;;5.05;;
11187;SDS011;5650;52.700;7.306;2023-02-03T10:28:33;31.23;;;6.32;;
11187;SDS011;5650;52.700;7.306;2023-02-03T10:31:06;29.67;;;5.45;;
11187;SDS011;5650;52.700;7.306;2023-02-03T10:33:41;29.58;;;5.38;;
11187;SDS011;5650;52.700;7.306;2023-02-03T10:36:17;27.60;;;5.57;;
11187;SDS011;5650;52.700;7.306;2023-02-03T10:38:48;25.27;;;5.07;;
11187;SDS011;5650;52.700;7.306;2023-02-03T10:41:24;28.65;;;6.13;;
11187;SDS011;5650;52.700;7.306;2023-02-03T10:43:57;29.08;;;6.05;;
11187;SDS011;5650;52.700;7.306;2023-02-03T10:46:34;31.17;;;4.85;;
11187;SDS011;5650;52.700;7.306;2023-02-03T10:49:03;29.05;;;5.00;;
11187;SDS011;5650;52.700;7.306;2023-02-03T10:51:33;30.15;;;5.80;;
11187;SDS011;5650;52.700;7.306;2023-02-03T10:54:08;29.67;;;5.60;;
11187;SDS011;5650;52.700;7.306;2023-02-03T10:56:53;23.92;;;5.40;;
11187;SDS011;5650;52.700;7.306;2023-02-03T10:59:29;28.98;;;6.35;;
11187;SDS011;5650;52.700;7.306;2023-02-03T11:02:01;29.27;;;6.15;;
11187;SDS011;5650;52.700;7.306;2023-02-03T11:04:47;35.47;;;6.22;;
11187;SDS011;5650;52.700;7.306;2023-02-03T11:07:36;33.40;;;6.32;;
11187;SDS011;5650;52.700;7.306;2023-02-03T11:10:03;33.00;;;6.43;;
11187;SDS011;5650;52.700;7.306;2023-02-03T11:15:51;29.75;;;5.07;;
11187;SDS011;5650;52.700;7.306;2023-02-03T11:18:38;27.98;;;6.38;;
11187;SDS011;5650;52.700;7.306;2023-02-03T11:24:02;28.00;;;6.10;;
11187;SDS011;5650;52.700;7.306;2023-02-03T11:26:32;27.08;;;5.43;;
11187;SDS011;5650;52.700;7.306;2023-02-03T11:29:05;32.72;;;6.35;;
11187;SDS011;5650;52.700;7.306;2023-02-03T11:31:46;34.90;;;6.30;;
11187;SDS011;5650;52.700;7.306;2023-02-03T11:34:19;27.42;;;6.15;;
11187;SDS011;5650;52.700;7.306;2023-02-03T11:36:50;34.35;;;6.78;;
11187;SDS011;5650;52.700;7.306;2023-02-03T11:39:23;29.77;;;5.53;;
11187;SDS011;5650;52.700;7.306;2023-02-03T11:41:55;30.13;;;5.95;;
11187;SDS011;5650;52.700;7.306;2023-02-03T11:44:24;29.35;;;6.15;;
11187;SDS011;5650;52.700;7.306;2023-02-03T11:46:56;35.03;;;7.32;;
11187;SDS011;5650;52.700;7.306;2023-02-03T11:52:38;29.17;;;6.40;;
11187;SDS011;5650;52.700;7.306;2023-02-03T11:55:53;32.13;;;7.03;;
11187;SDS011;5650;52.700;7.306;2023-02-03T11:58:43;33.08;;;6.25;;
11187;SDS011;5650;52.700;7.306;2023-02-03T12:01:42;30.83;;;6.47;;
11187;SDS011;5650;52.700;7.306;2023-02-03T12:07:50;29.38;;;5.88;;
11187;SDS011;5650;52.700;7.306;2023-02-03T12:10:35;35.35;;;6.95;;
11187;SDS011;5650;52.700;7.306;2023-02-03T12:13:18;29.55;;;5.68;;
11187;SDS011;5650;52.700;7.306;2023-02-03T12:19:10;29.35;;;6.97;;
11187;SDS011;5650;52.700;7.306;2023-02-03T12:21:44;33.25;;;6.18;;
11187;SDS011;5650;52.700;7.306;2023-02-03T12:24:18;33.58;;;6.78;;
11187;SDS011;5650;52.700;7.306;2023-02-03T12:26:55;27.10;;;6.40;;
11187;SDS011;5650;52.700;7.306;2023-02-03T12:29:31;37.58;;;7.38;;
11187;SDS011;5650;52.700;7.306;2023-02-03T12:32:17;33.15;;;6.97;;
11187;SDS011;5650;52.700;7.306;2023-02-03T12:34:49;30.42;;;7.15;;
11187;SDS011;5650;52.700;7.306;2023-02-03T12:37:22;32.03;;;6.45;;
11187;SDS011;5650;52.700;7.306;2023-02-03T12:39:54;30.58;;;6.65;;
11187;SDS011;5650;52.700;7.306;2023-02-03T12:42:26;31.83;;;6.28;;
11187;SDS011;5650;52.700;7.306;2023-02-03T12:44:58;34.13;;;7.28;;
11187;SDS011;5650;52.700;7.306;2023-02-03T12:47:29;30.35;;;6.55;;
11187;SDS011;5650;52.700;7.306;2023-02-03T12:50:02;33.90;;;6.78;;
11187;SDS011;5650;52.700;7.306;2023-02-03T12:52:32;32.22;;;6.95;;
11187;SDS011;5650;52.700;7.306;2023-02-03T12:55:12;38.75;;;6.82;;
11187;SDS011;5650;52.700;7.306;2023-02-03T12:57:48;34.03;;;7.68;;
11187;SDS011;5650;52.700;7.306;2023-02-03T13:00:26;37.22;;;7.07;;
11187;SDS011;5650;52.700;7.306;2023-02-03T13:03:12;33.85;;;6.78;;
11187;SDS011;5650;52.700;7.306;2023-02-03T13:05:48;33.20;;;6.72;;
11187;SDS011;5650;52.700;7.306;2023-02-03T13:08:21;36.72;;;7.20;;
11187;SDS011;5650;52.700;7.306;2023-02-03T13:11:02;38.33;;;7.07;;
11187;SDS011;5650;52.700;7.306;2023-02-03T13:13:39;33.78;;;6.35;;
11187;SDS011;5650;52.700;7.306;2023-02-03T13:16:15;30.95;;;6.93;;
11187;SDS011;5650;52.700;7.306;2023-02-03T13:18:48;34.83;;;6.90;;
11187;SDS011;5650;52.700;7.306;2023-02-03T13:21:22;34.83;;;7.22;;
11187;SDS011;5650;52.700;7.306;2023-02-03T13:23:49;29.52;;;6.07;;
11187;SDS011;5650;52.700;7.306;2023-02-03T13:32:33;28.27;;;6.22;;
11187;SDS011;5650;52.700;7.306;2023-02-03T13:41:14;23.65;;;4.85;;
11187;SDS011;5650;52.700;7.306;2023-02-03T13:43:47;24.17;;;4.88;;
11187;SDS011;5650;52.700;7.306;2023-02-03T13:46:19;28.77;;;6.35;;
11187;SDS011;5650;52.700;7.306;2023-02-03T13:48:49;29.50;;;6.13;;
11187;SDS011;5650;52.700;7.306;2023-02-03T13:51:21;26.75;;;5.38;;
11187;SDS011;5650;52.700;7.306;2023-02-03T13:53:57;27.42;;;6.22;;
11187;SDS011;5650;52.700;7.306;2023-02-03T13:56:27;33.88;;;6.75;;
11187;SDS011;5650;52.700;7.306;2023-02-03T13:59:05;24.27;;;5.13;;
11187;SDS011;5650;52.700;7.306;2023-02-03T14:20:52;31.17;;;6.63;;
11187;SDS011;5650;52.700;7.306;2023-02-03T14:23:45;29.27;;;5.95;;
11187;SDS011;5650;52.700;7.306;2023-02-03T14:26:17;35.03;;;6.63;;
11187;SDS011;5650;52.700;7.306;2023-02-03T14:29:01;32.88;;;6.93;;
11187;SDS011;5650;52.700;7.306;2023-02-03T14:31:30;34.53;;;7.32;;
11187;SDS011;5650;52.700;7.306;2023-02-03T14:34:05;40.17;;;7.93;;
11187;SDS011;5650;52.700;7.306;2023-02-03T14:36:45;29.83;;;6.65;;
11187;SDS011;5650;52.700;7.306;2023-02-03T14:39:33;33.67;;;7.50;;
11187;SDS011;5650;52.700;7.306;2023-02-03T14:45:30;33.88;;;6.78;;
11187;SDS011;5650;52.700;7.306;2023-02-03T14:48:21;24.38;;;5.95;;
11187;SDS011;5650;52.700;7.306;2023-02-03T14:51:09;23.25;;;5.15;;
11187;SDS011;5650;52.700;7.306;2023-02-03T14:57:04;34.75;;;7.13;;
11187;SDS011;5650;52.700;7.306;2023-02-03T14:59:41;30.52;;;4.95;;
11187;SDS011;5650;52.700;7.306;2023-02-03T15:02:16;32.05;;;6.32;;
11187;SDS011;5650;52.700;7.306;2023-02-03T15:04:47;35.28;;;6.50;;
11187;SDS011;5650;52.700;7.306;2023-02-03T15:10:15;34.08;;;5.78;;
11187;SDS011;5650;52.700;7.306;2023-02-03T15:12:45;33.28;;;8.13;;
11187;SDS011;5650;52.700;7.306;2023-02-03T15:15:18;26.67;;;6.00;;
11187;SDS011;5650;52.700;7.306;2023-02-03T15:17:48;29.35;;;6.25;;
11187;SDS011;5650;52.700;7.306;2023-02-03T15:20:22;28.27;;;5.10;;
11187;SDS011;5650;52.700;7.306;2023-02-03T15:23:15;25.65;;;6.15;;
11187;SDS011;5650;52.700;7.306;2023-02-03T15:25:46;24.05;;;5.72;;
11187;SDS011;5650;52.700;7.306;2023-02-03T15:28:21;30.73;;;5.88;;
11187;SDS011;5650;52.700;7.306;2023-02-03T15:30:51;25.35;;;5.05;;
11187;SDS011;5650;52.700;7.306;2023-02-03T15:33:23;20.90;;;5.00;;
11187;SDS011;5650;52.700;7.306;2023-02-03T15:35:51;35.30;;;6.30;;
11187;SDS011;5650;52.700;7.306;2023-02-03T15:38:23;26.88;;;5.88;;
11187;SDS011;5650;52.700;7.306;2023-02-03T15:40:55;26.15;;;5.88;;
11187;SDS011;5650;52.700;7.306;2023-02-03T15:43:24;28.02;;;6.45;;
11187;SDS011;5650;52.700;7.306;2023-02-03T15:45:58;29.33;;;5.65;;
11187;SDS011;5650;52.700;7.306;2023-02-03T15:48:30;27.20;;;6.68;;
11187;SDS011;5650;52.700;7.306;2023-02-03T15:51:03;31.35;;;6.40;;
11187;SDS011;5650;52.700;7.306;2023-02-03T15:53:37;28.55;;;5.82;;
11187;SDS011;5650;52.700;7.306;2023-02-03T15:56:16;22.92;;;5.32;;
11187;SDS011;5650;52.700;7.306;2023-02-03T15:58:48;27.13;;;10.13;;
11187;SDS011;5650;52.700;7.306;2023-02-03T16:01:18;28.10;;;6.05;;
11187;SDS011;5650;52.700;7.306;2023-02-03T16:03:50;29.00;;;6.22;;
11187;SDS011;5650;52.700;7.306;2023-02-03T16:06:21;26.17;;;6.78;;
11187;SDS011;5650;52.700;7.306;2023-02-03T16:08:52;33.63;;;5.75;;
11187;SDS011;5650;52.700;7.306;2023-02-03T16:11:22;30.55;;;5.63;;
11187;SDS011;5650;52.700;7.306;2023-02-03T16:13:51;27.77;;;6.55;;
11187;SDS011;5650;52.700;7.306;2023-02-03T16:16:21;20.98;;;5.30;;
11187;SDS011;5650;52.700;7.306;2023-02-03T16:18:52;23.67;;;4.75;;
11187;SDS011;5650;52.700;7.306;2023-02-03T16:21:23;25.75;;;5.57;;
11187;SDS011;5650;52.700;7.306;2023-02-03T16:23:53;21.90;;;5.50;;
11187;SDS011;5650;52.700;7.306;2023-02-03T16:26:22;22.92;;;4.97;;
11187;SDS011;5650;52.700;7.306;2023-02-03T16:28:55;26.42;;;5.55;;
11187;SDS011;5650;52.700;7.306;2023-02-03T16:31:53;28.05;;;6.05;;
11187;SDS011;5650;52.700;7.306;2023-02-03T16:34:38;26.05;;;5.25;;
11187;SDS011;5650;52.700;7.306;2023-02-03T16:37:23;22.77;;;5.80;;